sensor_id;sensor_type;location;lat;lon;timestamp;pressure;altitude;pressure_sealevel;temperature
22828;BMP180;11580;52.562;13.418;2022-08-14T00:01:38;100695.00;;;25.90
22828;BMP180;11580;52.562;13.418;2022-08-14T00:04:07;100697.00;;;25.80
22828;BMP180;11580;52.562;13.418;2022-08-14T00:06:35;100693.00;;;25.80
22828;BMP180;11580;52.562;13.418;2022-08-14T00:09:03;100697.00;;;25.70
22828;BMP180;11580;52.562;13.418;2022-08-14T00:11:30;100695.00;;;25.70
22828;BMP180;11580;52.562;13.418;2022-08-14T00:13:58;100685.00;;;25.60
22828;BMP180;11580;52.562;13.418;2022-08-14T00:16:25;100687.00;;;25.60
22828;BMP180;11580;52.562;13.418;2022-08-14T00:18:52;100689.00;;;25.60
22828;BMP180;11580;52.562;13.418;2022-08-14T00:21:21;100682.00;;;25.60
22828;BMP180;11580;52.562;13.418;2022-08-14T00:23:48;100679.00;;;25.50
22828;BMP180;11580;52.562;13.418;2022-08-14T00:26:16;100689.00;;;25.50
22828;BMP180;11580;52.562;13.418;2022-08-14T00:28:43;100692.00;;;25.50
22828;BMP180;11580;52.562;13.418;2022-08-14T00:31:11;100689.00;;;25.40
22828;BMP180;11580;52.562;13.418;2022-08-14T00:33:39;100693.00;;;25.40
22828;BMP180;11580;52.562;13.418;2022-08-14T00:36:07;100682.00;;;25.30
22828;BMP180;11580;52.562;13.418;2022-08-14T00:38:36;100688.00;;;25.30
22828;BMP180;11580;52.562;13.418;2022-08-14T00:41:06;100683.00;;;25.30
22828;BMP180;11580;52.562;13.418;2022-08-14T00:43:35;100680.00;;;25.20
22828;BMP180;11580;52.562;13.418;2022-08-14T00:46:05;100682.00;;;25.20
22828;BMP180;11580;52.562;13.418;2022-08-14T00:48:33;100680.00;;;25.20
22828;BMP180;11580;52.562;13.418;2022-08-14T00:51:02;100680.00;;;25.20
22828;BMP180;11580;52.562;13.418;2022-08-14T00:53:30;100674.00;;;25.10
22828;BMP180;11580;52.562;13.418;2022-08-14T00:55:58;100670.00;;;25.10
22828;BMP180;11580;52.562;13.418;2022-08-14T00:58:26;100669.00;;;25.10
22828;BMP180;11580;52.562;13.418;2022-08-14T01:01:05;100639.00;;;25.10
22828;BMP180;11580;52.562;13.418;2022-08-14T01:03:34;100659.00;;;25.10
22828;BMP180;11580;52.562;13.418;2022-08-14T01:06:06;100641.00;;;25.10
22828;BMP180;11580;52.562;13.418;2022-08-14T01:08:36;100656.00;;;25.00
22828;BMP180;11580;52.562;13.418;2022-08-14T01:11:06;100663.00;;;25.00
22828;BMP180;11580;52.562;13.418;2022-08-14T01:13:37;100655.00;;;25.00
22828;BMP180;11580;52.562;13.418;2022-08-14T01:16:10;100660.00;;;25.00
22828;BMP180;11580;52.562;13.418;2022-08-14T01:18:37;100657.00;;;25.00
22828;BMP180;11580;52.562;13.418;2022-08-14T01:21:29;100657.00;;;25.10
22828;BMP180;11580;52.562;13.418;2022-08-14T01:23:57;100659.00;;;25.10
22828;BMP180;11580;52.562;13.418;2022-08-14T01:26:26;100659.00;;;25.10
22828;BMP180;11580;52.562;13.418;2022-08-14T01:28:55;100660.00;;;25.20
22828;BMP180;11580;52.562;13.418;2022-08-14T01:31:27;100660.00;;;25.20
22828;BMP180;11580;52.562;13.418;2022-08-14T01:33:58;100661.00;;;25.20
22828;BMP180;11580;52.562;13.418;2022-08-14T01:36:30;100656.00;;;25.30
22828;BMP180;11580;52.562;13.418;2022-08-14T01:39:04;100654.00;;;25.30
22828;BMP180;11580;52.562;13.418;2022-08-14T01:41:31;100655.00;;;25.30
22828;BMP180;11580;52.562;13.418;2022-08-14T01:44:02;100660.00;;;25.30
22828;BMP180;11580;52.562;13.418;2022-08-14T01:46:35;100661.00;;;25.40
22828;BMP180;11580;52.562;13.418;2022-08-14T01:49:06;100663.00;;;25.40
22828;BMP180;11580;52.562;13.418;2022-08-14T01:51:36;100634.00;;;25.40
22828;BMP180;11580;52.562;13.418;2022-08-14T01:54:07;100656.00;;;25.40
22828;BMP180;11580;52.562;13.418;2022-08-14T01:56:37;100642.00;;;25.50
22828;BMP180;11580;52.562;13.418;2022-08-14T01:59:06;100664.00;;;25.50
22828;BMP180;11580;52.562;13.418;2022-08-14T02:01:34;100659.00;;;25.40
22828;BMP180;11580;52.562;13.418;2022-08-14T02:04:03;100656.00;;;25.50
22828;BMP180;11580;52.562;13.418;2022-08-14T02:06:31;100659.00;;;25.50
22828;BMP180;11580;52.562;13.418;2022-08-14T02:09:01;100659.00;;;25.50
22828;BMP180;11580;52.562;13.418;2022-08-14T02:11:29;100656.00;;;25.50
22828;BMP180;11580;52.562;13.418;2022-08-14T02:13:59;100654.00;;;25.50
22828;BMP180;11580;52.562;13.418;2022-08-14T02:16:29;100650.00;;;25.50
22828;BMP180;11580;52.562;13.418;2022-08-14T02:19:02;100656.00;;;25.50
22828;BMP180;11580;52.562;13.418;2022-08-14T02:21:31;100649.00;;;25.50
22828;BMP180;11580;52.562;13.418;2022-08-14T02:24:03;100650.00;;;25.50
22828;BMP180;11580;52.562;13.418;2022-08-14T02:26:33;100640.00;;;25.50
22828;BMP180;11580;52.562;13.418;2022-08-14T02:29:06;100625.00;;;25.50
22828;BMP180;11580;52.562;13.418;2022-08-14T02:31:36;100639.00;;;25.40
22828;BMP180;11580;52.562;13.418;2022-08-14T02:34:09;100641.00;;;25.40
22828;BMP180;11580;52.562;13.418;2022-08-14T02:36:39;100636.00;;;25.50
22828;BMP180;11580;52.562;13.418;2022-08-14T02:39:09;100637.00;;;25.50
22828;BMP180;11580;52.562;13.418;2022-08-14T02:41:38;100628.00;;;25.50
22828;BMP180;11580;52.562;13.418;2022-08-14T02:44:08;100628.00;;;25.50
22828;BMP180;11580;52.562;13.418;2022-08-14T02:46:36;100569.00;;;25.50
22828;BMP180;11580;52.562;13.418;2022-08-14T02:49:04;100614.00;;;25.50
22828;BMP180;11580;52.562;13.418;2022-08-14T02:51:33;100621.00;;;25.50
22828;BMP180;11580;52.562;13.418;2022-08-14T02:54:02;100598.00;;;25.50
22828;BMP180;11580;52.562;13.418;2022-08-14T02:56:30;100616.00;;;25.50
22828;BMP180;11580;52.562;13.418;2022-08-14T02:58:59;100614.00;;;25.50
22828;BMP180;11580;52.562;13.418;2022-08-14T03:01:27;100612.00;;;25.50
22828;BMP180;11580;52.562;13.418;2022-08-14T03:03:54;100613.00;;;25.50
22828;BMP180;11580;52.562;13.418;2022-08-14T03:06:22;100610.00;;;25.40
22828;BMP180;11580;52.562;13.418;2022-08-14T03:08:52;100609.00;;;25.50
22828;BMP180;11580;52.562;13.418;2022-08-14T03:11:20;100610.00;;;25.50
22828;BMP180;11580;52.562;13.418;2022-08-14T03:13:50;100617.00;;;25.50
22828;BMP180;11580;52.562;13.418;2022-08-14T03:16:20;100611.00;;;25.40
22828;BMP180;11580;52.562;13.418;2022-08-14T03:18:51;100613.00;;;25.40
22828;BMP180;11580;52.562;13.418;2022-08-14T03:21:21;100604.00;;;25.40
22828;BMP180;11580;52.562;13.418;2022-08-14T03:23:52;100611.00;;;25.30
22828;BMP180;11580;52.562;13.418;2022-08-14T03:26:26;100609.00;;;25.30
22828;BMP180;11580;52.562;13.418;2022-08-14T03:28:55;100611.00;;;25.30
22828;BMP180;11580;52.562;13.418;2022-08-14T03:31:23;100582.00;;;25.30
22828;BMP180;11580;52.562;13.418;2022-08-14T03:33:50;100605.00;;;25.30
22828;BMP180;11580;52.562;13.418;2022-08-14T03:36:19;100602.00;;;25.30
22828;BMP180;11580;52.562;13.418;2022-08-14T03:38:50;100601.00;;;25.30
22828;BMP180;11580;52.562;13.418;2022-08-14T03:41:21;100601.00;;;25.30
22828;BMP180;11580;52.562;13.418;2022-08-14T03:43:52;100603.00;;;25.30
22828;BMP180;11580;52.562;13.418;2022-08-14T03:46:22;100588.00;;;25.30
22828;BMP180;11580;52.562;13.418;2022-08-14T03:48:49;100597.00;;;25.20
22828;BMP180;11580;52.562;13.418;2022-08-14T03:51:17;100604.00;;;25.30
22828;BMP180;11580;52.562;13.418;2022-08-14T03:53:45;100601.00;;;25.30
22828;BMP180;11580;52.562;13.418;2022-08-14T03:56:15;100599.00;;;25.30
22828;BMP180;11580;52.562;13.418;2022-08-14T03:58:45;100602.00;;;25.40
22828;BMP180;11580;52.562;13.418;2022-08-14T04:01:14;100602.00;;;25.40
22828;BMP180;11580;52.562;13.418;2022-08-14T04:03:46;100593.00;;;25.50
22828;BMP180;11580;52.562;13.418;2022-08-14T04:06:14;100581.00;;;25.50
22828;BMP180;11580;52.562;13.418;2022-08-14T04:08:42;100583.00;;;25.50
22828;BMP180;11580;52.562;13.418;2022-08-14T04:11:10;100578.00;;;25.60
22828;BMP180;11580;52.562;13.418;2022-08-14T04:13:40;100586.00;;;25.60
22828;BMP180;11580;52.562;13.418;2022-08-14T04:16:12;100576.00;;;25.60
22828;BMP180;11580;52.562;13.418;2022-08-14T04:18:41;100571.00;;;25.60
22828;BMP180;11580;52.562;13.418;2022-08-14T04:21:11;100583.00;;;25.60
22828;BMP180;11580;52.562;13.418;2022-08-14T04:23:40;100582.00;;;25.60
22828;BMP180;11580;52.562;13.418;2022-08-14T04:26:10;100582.00;;;25.60
22828;BMP180;11580;52.562;13.418;2022-08-14T04:28:41;100583.00;;;25.60
22828;BMP180;11580;52.562;13.418;2022-08-14T04:31:09;100582.00;;;25.60
22828;BMP180;11580;52.562;13.418;2022-08-14T04:33:37;100580.00;;;25.60
22828;BMP180;11580;52.562;13.418;2022-08-14T04:36:05;100594.00;;;25.60
22828;BMP180;11580;52.562;13.418;2022-08-14T04:38:33;100565.00;;;25.60
22828;BMP180;11580;52.562;13.418;2022-08-14T04:41:17;100581.00;;;25.50
22828;BMP180;11580;52.562;13.418;2022-08-14T04:44:02;100586.00;;;25.60
22828;BMP180;11580;52.562;13.418;2022-08-14T04:46:33;100592.00;;;25.50
22828;BMP180;11580;52.562;13.418;2022-08-14T04:49:02;100580.00;;;25.50
22828;BMP180;11580;52.562;13.418;2022-08-14T04:51:29;100580.00;;;25.60
22828;BMP180;11580;52.562;13.418;2022-08-14T04:53:59;100575.00;;;25.60
22828;BMP180;11580;52.562;13.418;2022-08-14T04:56:27;100574.00;;;25.60
22828;BMP180;11580;52.562;13.418;2022-08-14T04:59:01;100579.00;;;25.60
22828;BMP180;11580;52.562;13.418;2022-08-14T05:01:29;100575.00;;;25.70
22828;BMP180;11580;52.562;13.418;2022-08-14T05:03:57;100586.00;;;25.70
22828;BMP180;11580;52.562;13.418;2022-08-14T05:06:24;100570.00;;;25.80
22828;BMP180;11580;52.562;13.418;2022-08-14T05:08:51;100576.00;;;25.90
22828;BMP180;11580;52.562;13.418;2022-08-14T05:11:21;100568.00;;;25.90
22828;BMP180;11580;52.562;13.418;2022-08-14T05:13:48;100563.00;;;26.00
22828;BMP180;11580;52.562;13.418;2022-08-14T05:16:16;100571.00;;;26.20
22828;BMP180;11580;52.562;13.418;2022-08-14T05:18:43;100569.00;;;26.30
22828;BMP180;11580;52.562;13.418;2022-08-14T05:21:11;100572.00;;;26.50
22828;BMP180;11580;52.562;13.418;2022-08-14T05:23:39;100565.00;;;26.60
22828;BMP180;11580;52.562;13.418;2022-08-14T05:26:07;100573.00;;;26.80
22828;BMP180;11580;52.562;13.418;2022-08-14T05:28:43;100570.00;;;26.90
22828;BMP180;11580;52.562;13.418;2022-08-14T05:31:14;100567.00;;;27.00
22828;BMP180;11580;52.562;13.418;2022-08-14T05:33:44;100573.00;;;27.10
22828;BMP180;11580;52.562;13.418;2022-08-14T05:36:12;100562.00;;;27.20
22828;BMP180;11580;52.562;13.418;2022-08-14T05:38:42;100561.00;;;27.20
22828;BMP180;11580;52.562;13.418;2022-08-14T05:41:13;100554.00;;;27.30
22828;BMP180;11580;52.562;13.418;2022-08-14T05:43:43;100545.00;;;27.30
22828;BMP180;11580;52.562;13.418;2022-08-14T05:46:14;100549.00;;;27.40
22828;BMP180;11580;52.562;13.418;2022-08-14T05:48:46;100554.00;;;27.50
22828;BMP180;11580;52.562;13.418;2022-08-14T05:51:14;100547.00;;;27.50
22828;BMP180;11580;52.562;13.418;2022-08-14T05:53:42;100543.00;;;27.50
22828;BMP180;11580;52.562;13.418;2022-08-14T05:56:09;100554.00;;;27.50
22828;BMP180;11580;52.562;13.418;2022-08-14T05:58:37;100551.00;;;27.60
22828;BMP180;11580;52.562;13.418;2022-08-14T06:01:06;100558.00;;;27.60
22828;BMP180;11580;52.562;13.418;2022-08-14T06:03:34;100556.00;;;27.70
22828;BMP180;11580;52.562;13.418;2022-08-14T06:06:01;100561.00;;;27.70
22828;BMP180;11580;52.562;13.418;2022-08-14T06:08:30;100551.00;;;27.70
22828;BMP180;11580;52.562;13.418;2022-08-14T06:11:00;100561.00;;;27.80
22828;BMP180;11580;52.562;13.418;2022-08-14T06:13:29;100548.00;;;27.90
22828;BMP180;11580;52.562;13.418;2022-08-14T06:15:57;100548.00;;;28.00
22828;BMP180;11580;52.562;13.418;2022-08-14T06:18:26;100543.00;;;28.10
22828;BMP180;11580;52.562;13.418;2022-08-14T06:20:53;100545.00;;;28.10
22828;BMP180;11580;52.562;13.418;2022-08-14T06:23:21;100554.00;;;28.20
22828;BMP180;11580;52.562;13.418;2022-08-14T06:25:49;100547.00;;;28.20
22828;BMP180;11580;52.562;13.418;2022-08-14T06:28:17;100546.00;;;28.30
22828;BMP180;11580;52.562;13.418;2022-08-14T06:30:45;100527.00;;;28.40
22828;BMP180;11580;52.562;13.418;2022-08-14T06:33:13;100530.00;;;28.50
22828;BMP180;11580;52.562;13.418;2022-08-14T06:35:42;100528.00;;;28.50
22828;BMP180;11580;52.562;13.418;2022-08-14T06:38:14;100535.00;;;28.60
22828;BMP180;11580;52.562;13.418;2022-08-14T06:40:42;100534.00;;;28.70
22828;BMP180;11580;52.562;13.418;2022-08-14T06:43:11;100534.00;;;28.70
22828;BMP180;11580;52.562;13.418;2022-08-14T06:45:41;100536.00;;;28.80
22828;BMP180;11580;52.562;13.418;2022-08-14T06:48:14;100531.00;;;28.90
22828;BMP180;11580;52.562;13.418;2022-08-14T06:50:45;100538.00;;;28.90
22828;BMP180;11580;52.562;13.418;2022-08-14T06:53:13;100548.00;;;29.00
22828;BMP180;11580;52.562;13.418;2022-08-14T06:55:41;100545.00;;;29.00
22828;BMP180;11580;52.562;13.418;2022-08-14T06:58:11;100537.00;;;29.10
22828;BMP180;11580;52.562;13.418;2022-08-14T07:00:39;100543.00;;;29.10
22828;BMP180;11580;52.562;13.418;2022-08-14T07:03:27;100539.00;;;29.20
22828;BMP180;11580;52.562;13.418;2022-08-14T07:06:14;100542.00;;;29.30
22828;BMP180;11580;52.562;13.418;2022-08-14T07:08:42;100546.00;;;29.30
22828;BMP180;11580;52.562;13.418;2022-08-14T07:11:11;100530.00;;;29.40
22828;BMP180;11580;52.562;13.418;2022-08-14T07:13:39;100530.00;;;29.50
22828;BMP180;11580;52.562;13.418;2022-08-14T07:16:07;100524.00;;;29.50
22828;BMP180;11580;52.562;13.418;2022-08-14T07:18:38;100531.00;;;29.60
22828;BMP180;11580;52.562;13.418;2022-08-14T07:21:07;100522.00;;;29.60
22828;BMP180;11580;52.562;13.418;2022-08-14T07:23:37;100520.00;;;29.60
22828;BMP180;11580;52.562;13.418;2022-08-14T07:26:05;100522.00;;;29.70
22828;BMP180;11580;52.562;13.418;2022-08-14T07:28:34;100519.00;;;29.70
22828;BMP180;11580;52.562;13.418;2022-08-14T07:31:05;100519.00;;;29.70
22828;BMP180;11580;52.562;13.418;2022-08-14T07:33:36;100516.00;;;29.80
22828;BMP180;11580;52.562;13.418;2022-08-14T07:36:07;100519.00;;;29.80
22828;BMP180;11580;52.562;13.418;2022-08-14T07:38:37;100512.00;;;29.80
22828;BMP180;11580;52.562;13.418;2022-08-14T07:41:07;100517.00;;;29.90
22828;BMP180;11580;52.562;13.418;2022-08-14T07:43:35;100513.00;;;29.90
22828;BMP180;11580;52.562;13.418;2022-08-14T07:46:03;100515.00;;;30.00
22828;BMP180;11580;52.562;13.418;2022-08-14T07:48:31;100512.00;;;30.10
22828;BMP180;11580;52.562;13.418;2022-08-14T07:50:58;100507.00;;;30.20
22828;BMP180;11580;52.562;13.418;2022-08-14T07:53:26;100506.00;;;30.20
22828;BMP180;11580;52.562;13.418;2022-08-14T07:55:54;100507.00;;;30.30
22828;BMP180;11580;52.562;13.418;2022-08-14T07:58:22;100511.00;;;30.40
22828;BMP180;11580;52.562;13.418;2022-08-14T08:00:54;100502.00;;;30.40
22828;BMP180;11580;52.562;13.418;2022-08-14T08:03:24;100503.00;;;30.50
22828;BMP180;11580;52.562;13.418;2022-08-14T08:05:52;100502.00;;;30.60
22828;BMP180;11580;52.562;13.418;2022-08-14T08:08:20;100485.00;;;30.60
22828;BMP180;11580;52.562;13.418;2022-08-14T08:10:54;100497.00;;;30.70
22828;BMP180;11580;52.562;13.418;2022-08-14T08:13:22;100503.00;;;30.80
22828;BMP180;11580;52.562;13.418;2022-08-14T08:15:53;100504.00;;;30.90
22828;BMP180;11580;52.562;13.418;2022-08-14T08:18:23;100503.00;;;31.00
22828;BMP180;11580;52.562;13.418;2022-08-14T08:20:53;100499.00;;;31.10
22828;BMP180;11580;52.562;13.418;2022-08-14T08:23:22;100502.00;;;31.20
22828;BMP180;11580;52.562;13.418;2022-08-14T08:25:51;100497.00;;;31.20
22828;BMP180;11580;52.562;13.418;2022-08-14T08:28:21;100491.00;;;31.30
22828;BMP180;11580;52.562;13.418;2022-08-14T08:30:52;100496.00;;;31.30
22828;BMP180;11580;52.562;13.418;2022-08-14T08:33:22;100486.00;;;31.30
22828;BMP180;11580;52.562;13.418;2022-08-14T08:35:51;100493.00;;;31.40
22828;BMP180;11580;52.562;13.418;2022-08-14T08:38:23;100491.00;;;31.50
22828;BMP180;11580;52.562;13.418;2022-08-14T08:40:54;100481.00;;;31.50
22828;BMP180;11580;52.562;13.418;2022-08-14T08:43:26;100493.00;;;31.50
22828;BMP180;11580;52.562;13.418;2022-08-14T08:45:57;100485.00;;;31.60
22828;BMP180;11580;52.562;13.418;2022-08-14T08:48:26;100486.00;;;31.60
22828;BMP180;11580;52.562;13.418;2022-08-14T08:50:55;100482.00;;;31.60
22828;BMP180;11580;52.562;13.418;2022-08-14T08:53:29;100474.00;;;31.70
22828;BMP180;11580;52.562;13.418;2022-08-14T08:55:57;100461.00;;;31.70
22828;BMP180;11580;52.562;13.418;2022-08-14T08:58:26;100467.00;;;31.80
22828;BMP180;11580;52.562;13.418;2022-08-14T09:00:57;100463.00;;;31.80
22828;BMP180;11580;52.562;13.418;2022-08-14T09:03:27;100467.00;;;31.90
22828;BMP180;11580;52.562;13.418;2022-08-14T09:05:59;100466.00;;;31.90
22828;BMP180;11580;52.562;13.418;2022-08-14T09:08:31;100465.00;;;32.00
22828;BMP180;11580;52.562;13.418;2022-08-14T09:11:01;100472.00;;;32.00
22828;BMP180;11580;52.562;13.418;2022-08-14T09:13:30;100459.00;;;32.00
22828;BMP180;11580;52.562;13.418;2022-08-14T09:15:58;100462.00;;;32.00
22828;BMP180;11580;52.562;13.418;2022-08-14T09:18:26;100455.00;;;32.00
22828;BMP180;11580;52.562;13.418;2022-08-14T09:20:55;100444.00;;;32.10
22828;BMP180;11580;52.562;13.418;2022-08-14T09:23:23;100447.00;;;32.20
22828;BMP180;11580;52.562;13.418;2022-08-14T09:25:51;100453.00;;;32.20
22828;BMP180;11580;52.562;13.418;2022-08-14T09:28:19;100451.00;;;32.30
22828;BMP180;11580;52.562;13.418;2022-08-14T09:30:52;100439.00;;;32.30
22828;BMP180;11580;52.562;13.418;2022-08-14T09:33:52;100442.00;;;32.40
22828;BMP180;11580;52.562;13.418;2022-08-14T09:36:34;100441.00;;;32.40
22828;BMP180;11580;52.562;13.418;2022-08-14T09:39:22;100439.00;;;32.50
22828;BMP180;11580;52.562;13.418;2022-08-14T09:42:14;100441.00;;;32.60
22828;BMP180;11580;52.562;13.418;2022-08-14T09:44:53;100445.00;;;32.70
22828;BMP180;11580;52.562;13.418;2022-08-14T09:47:45;100434.00;;;32.80
22828;BMP180;11580;52.562;13.418;2022-08-14T09:50:24;100429.00;;;33.00
22828;BMP180;11580;52.562;13.418;2022-08-14T09:52:56;100429.00;;;33.10
22828;BMP180;11580;52.562;13.418;2022-08-14T09:55:25;100435.00;;;33.20
22828;BMP180;11580;52.562;13.418;2022-08-14T09:58:09;100427.00;;;33.30
22828;BMP180;11580;52.562;13.418;2022-08-14T10:00:44;100418.00;;;33.30
22828;BMP180;11580;52.562;13.418;2022-08-14T10:03:24;100421.00;;;33.40
22828;BMP180;11580;52.562;13.418;2022-08-14T10:06:07;100410.00;;;33.50
22828;BMP180;11580;52.562;13.418;2022-08-14T10:08:44;100419.00;;;33.50
22828;BMP180;11580;52.562;13.418;2022-08-14T10:11:18;100411.00;;;33.50
22828;BMP180;11580;52.562;13.418;2022-08-14T10:13:48;100425.00;;;33.50
22828;BMP180;11580;52.562;13.418;2022-08-14T10:16:20;100404.00;;;33.60
22828;BMP180;11580;52.562;13.418;2022-08-14T10:19:06;100404.00;;;33.80
22828;BMP180;11580;52.562;13.418;2022-08-14T10:21:35;100404.00;;;33.80
22828;BMP180;11580;52.562;13.418;2022-08-14T10:24:03;100390.00;;;33.90
22828;BMP180;11580;52.562;13.418;2022-08-14T10:26:34;100394.00;;;34.00
22828;BMP180;11580;52.562;13.418;2022-08-14T10:29:06;100389.00;;;34.10
22828;BMP180;11580;52.562;13.418;2022-08-14T10:31:35;100392.00;;;34.20
22828;BMP180;11580;52.562;13.418;2022-08-14T10:34:07;100390.00;;;34.30
22828;BMP180;11580;52.562;13.418;2022-08-14T10:36:37;100374.00;;;34.40
22828;BMP180;11580;52.562;13.418;2022-08-14T10:39:14;100383.00;;;34.50
22828;BMP180;11580;52.562;13.418;2022-08-14T10:41:43;100380.00;;;34.50
22828;BMP180;11580;52.562;13.418;2022-08-14T10:44:13;100372.00;;;34.50
22828;BMP180;11580;52.562;13.418;2022-08-14T10:46:45;100376.00;;;34.60
22828;BMP180;11580;52.562;13.418;2022-08-14T10:49:19;100372.00;;;34.60
22828;BMP180;11580;52.562;13.418;2022-08-14T10:52:02;100357.00;;;34.60
22828;BMP180;11580;52.562;13.418;2022-08-14T10:54:37;100348.00;;;34.60
22828;BMP180;11580;52.562;13.418;2022-08-14T10:57:14;100355.00;;;34.50
22828;BMP180;11580;52.562;13.418;2022-08-14T10:59:50;100352.00;;;34.50
22828;BMP180;11580;52.562;13.418;2022-08-14T11:02:25;100345.00;;;34.50
22828;BMP180;11580;52.562;13.418;2022-08-14T11:05:05;100352.00;;;34.50
22828;BMP180;11580;52.562;13.418;2022-08-14T11:07:35;100351.00;;;34.50
22828;BMP180;11580;52.562;13.418;2022-08-14T11:10:08;100349.00;;;34.50
22828;BMP180;11580;52.562;13.418;2022-08-14T11:12:43;100339.00;;;34.40
22828;BMP180;11580;52.562;13.418;2022-08-14T11:15:15;100341.00;;;34.40
22828;BMP180;11580;52.562;13.418;2022-08-14T11:17:43;100340.00;;;34.40
22828;BMP180;11580;52.562;13.418;2022-08-14T11:20:16;100340.00;;;34.40
22828;BMP180;11580;52.562;13.418;2022-08-14T11:22:44;100345.00;;;34.40
22828;BMP180;11580;52.562;13.418;2022-08-14T11:25:14;100326.00;;;34.40
22828;BMP180;11580;52.562;13.418;2022-08-14T11:27:43;100343.00;;;34.40
22828;BMP180;11580;52.562;13.418;2022-08-14T11:30:14;100334.00;;;34.40
22828;BMP180;11580;52.562;13.418;2022-08-14T11:32:44;100335.00;;;34.40
22828;BMP180;11580;52.562;13.418;2022-08-14T11:35:17;100334.00;;;34.40
22828;BMP180;11580;52.562;13.418;2022-08-14T11:37:50;100332.00;;;34.40
22828;BMP180;11580;52.562;13.418;2022-08-14T11:40:19;100330.00;;;34.40
22828;BMP180;11580;52.562;13.418;2022-08-14T11:42:47;100326.00;;;34.40
22828;BMP180;11580;52.562;13.418;2022-08-14T11:45:15;100333.00;;;34.40
22828;BMP180;11580;52.562;13.418;2022-08-14T11:47:43;100332.00;;;34.40
22828;BMP180;11580;52.562;13.418;2022-08-14T11:50:14;100333.00;;;34.50
22828;BMP180;11580;52.562;13.418;2022-08-14T11:52:44;100325.00;;;34.50
22828;BMP180;11580;52.562;13.418;2022-08-14T11:55:13;100331.00;;;34.50
22828;BMP180;11580;52.562;13.418;2022-08-14T11:57:42;100322.00;;;34.50
22828;BMP180;11580;52.562;13.418;2022-08-14T12:00:14;100333.00;;;34.40
22828;BMP180;11580;52.562;13.418;2022-08-14T12:02:54;100310.00;;;34.40
22828;BMP180;11580;52.562;13.418;2022-08-14T12:05:31;100306.00;;;34.40
22828;BMP180;11580;52.562;13.418;2022-08-14T12:08:00;100314.00;;;34.40
22828;BMP180;11580;52.562;13.418;2022-08-14T12:10:32;100312.00;;;34.30
22828;BMP180;11580;52.562;13.418;2022-08-14T12:13:11;100316.00;;;34.30
22828;BMP180;11580;52.562;13.418;2022-08-14T12:15:40;100310.00;;;34.20
22828;BMP180;11580;52.562;13.418;2022-08-14T12:18:08;100300.00;;;34.20
22828;BMP180;11580;52.562;13.418;2022-08-14T12:20:39;100295.00;;;34.30
22828;BMP180;11580;52.562;13.418;2022-08-14T12:23:21;100292.00;;;34.20
22828;BMP180;11580;52.562;13.418;2022-08-14T12:25:49;100292.00;;;34.20
22828;BMP180;11580;52.562;13.418;2022-08-14T12:28:16;100284.00;;;34.20
22828;BMP180;11580;52.562;13.418;2022-08-14T12:30:44;100284.00;;;34.30
22828;BMP180;11580;52.562;13.418;2022-08-14T12:33:23;100281.00;;;34.30
22828;BMP180;11580;52.562;13.418;2022-08-14T12:35:54;100281.00;;;34.30
22828;BMP180;11580;52.562;13.418;2022-08-14T12:38:33;100269.00;;;34.30
22828;BMP180;11580;52.562;13.418;2022-08-14T12:41:02;100264.00;;;34.30
22828;BMP180;11580;52.562;13.418;2022-08-14T12:43:31;100265.00;;;34.40
22828;BMP180;11580;52.562;13.418;2022-08-14T12:45:59;100262.00;;;34.40
22828;BMP180;11580;52.562;13.418;2022-08-14T12:48:27;100253.00;;;34.40
22828;BMP180;11580;52.562;13.418;2022-08-14T12:50:56;100254.00;;;34.50
22828;BMP180;11580;52.562;13.418;2022-08-14T12:53:33;100244.00;;;34.50
22828;BMP180;11580;52.562;13.418;2022-08-14T12:56:02;100250.00;;;34.50
22828;BMP180;11580;52.562;13.418;2022-08-14T12:58:33;100254.00;;;34.50
22828;BMP180;11580;52.562;13.418;2022-08-14T13:01:02;100241.00;;;34.50
22828;BMP180;11580;52.562;13.418;2022-08-14T13:03:29;100236.00;;;34.60
22828;BMP180;11580;52.562;13.418;2022-08-14T13:05:58;100233.00;;;34.70
22828;BMP180;11580;52.562;13.418;2022-08-14T13:08:27;100217.00;;;34.80
22828;BMP180;11580;52.562;13.418;2022-08-14T13:10:55;100216.00;;;34.80
22828;BMP180;11580;52.562;13.418;2022-08-14T13:13:26;100215.00;;;34.90
22828;BMP180;11580;52.562;13.418;2022-08-14T13:15:58;100220.00;;;35.00
22828;BMP180;11580;52.562;13.418;2022-08-14T13:18:27;100205.00;;;35.10
22828;BMP180;11580;52.562;13.418;2022-08-14T13:20:56;100216.00;;;35.20
22828;BMP180;11580;52.562;13.418;2022-08-14T13:23:32;100199.00;;;35.20
22828;BMP180;11580;52.562;13.418;2022-08-14T13:26:00;100198.00;;;35.20
22828;BMP180;11580;52.562;13.418;2022-08-14T13:28:28;100191.00;;;35.20
22828;BMP180;11580;52.562;13.418;2022-08-14T13:30:59;100186.00;;;35.10
22828;BMP180;11580;52.562;13.418;2022-08-14T13:33:29;100177.00;;;35.10
22828;BMP180;11580;52.562;13.418;2022-08-14T13:36:00;100182.00;;;35.00
22828;BMP180;11580;52.562;13.418;2022-08-14T13:38:30;100179.00;;;35.00
22828;BMP180;11580;52.562;13.418;2022-08-14T13:40:57;100161.00;;;35.00
22828;BMP180;11580;52.562;13.418;2022-08-14T13:43:24;100166.00;;;34.90
22828;BMP180;11580;52.562;13.418;2022-08-14T13:45:52;100158.00;;;34.90
22828;BMP180;11580;52.562;13.418;2022-08-14T13:48:21;100151.00;;;34.90
22828;BMP180;11580;52.562;13.418;2022-08-14T13:50:54;100148.00;;;34.90
22828;BMP180;11580;52.562;13.418;2022-08-14T13:53:25;100148.00;;;34.90
22828;BMP180;11580;52.562;13.418;2022-08-14T13:55:57;100147.00;;;35.00
22828;BMP180;11580;52.562;13.418;2022-08-14T13:58:27;100144.00;;;35.00
22828;BMP180;11580;52.562;13.418;2022-08-14T14:00:59;100134.00;;;35.00
22828;BMP180;11580;52.562;13.418;2022-08-14T14:03:27;100136.00;;;35.10